Track Тулупова Ирина

Time Latitude Longitude Accuracy (66% radius in meters) Altitude (meters) Speed (km/hour) Bearing (degrees) Battery (%) GPS flag
09:30:35 60.370946 29.556378 8 82 0 355.9462890625 70 1 delete
09:30:23 60.370954 29.556395 8 78 0 29.865730285645 70 1 delete
09:30:11 60.370931 29.556375 4 78 0 29.865730285645 70 1 delete
09:30:08 60.370925 29.556363 8 74 0 29.865730285645 70 1 delete
09:29:58 60.370992 29.556363 6 77 0 29.865730285645 70 1 delete
09:29:46 60.370984 29.556371 6 73 0 29.865730285645 70 1 delete
09:29:33 60.370970 29.556338 6 79 0 29.865730285645 70 1 delete
09:29:32 60.370971 29.556324 6 85 0 29.865730285645 70 1 delete
09:29:20 60.370958 29.556287 4 95 0 29.865730285645 70 1 delete
09:29:06 60.370956 29.556278 12 86 0 29.865730285645 70 1 delete
09:28:54 60.370948 29.556264 6 85 0 29.865730285645 70 1 delete
09:28:42 60.370925 29.556246 12 75 0 29.865730285645 70 1 delete
09:28:39 60.370934 29.556283 12 63 0.3574370443821 29.865730285645 70 1 delete
09:28:29 60.370958 29.556352 8 50 0 223.06719970703 70 1 delete
09:28:17 60.370955 29.556282 12 67 0 223.06719970703 70 1 delete
09:28:07 60.370973 29.556331 6 71 0 223.06719970703 70 1 delete
09:28:04 60.370978 29.556345 6 72 0 223.06719970703 70 1 delete
09:27:52 60.370989 29.556371 6 65 0 223.06719970703 70 1 delete
09:27:39 60.370983 29.556507 8 55 0 223.06719970703 70 1 delete
09:27:27 60.370982 29.556438 6 63 0 223.06719970703 70 1 delete
09:27:22 60.370978 29.556423 4 70 0 223.06719970703 70 1 delete
09:27:15 60.370976 29.556388 6 78 0 223.06719970703 70 1 delete
09:27:02 60.370991 29.556389 6 79 0 223.06719970703 70 1 delete
09:26:50 60.370994 29.556380 12 77 0 223.06719970703 70 1 delete
09:26:38 60.370982 29.556371 6 76 0 223.06719970703 70 1 delete
09:26:26 60.370937 29.556337 4 79 0 223.06719970703 70 1 delete
09:26:15 60.370962 29.556335 8 75 0 223.06719970703 70 1 delete
09:26:14 60.370964 29.556333 8 73 0 223.06719970703 70 1 delete
09:26:02 60.370975 29.556310 6 54 0 223.06719970703 70 1 delete
09:25:56 60.371009 29.556336 12 43 0 223.06719970703 70 1 delete
09:25:49 60.370971 29.556331 12 50 0 223.06719970703 70 1 delete
09:25:36 60.370940 29.556284 8 64 0 199.24011230469 70 1 delete
09:25:24 60.370952 29.556284 6 61 0 199.24011230469 70 1 delete
09:25:11 60.370958 29.556274 6 59 0 199.24011230469 70 1 delete
09:24:59 60.370982 29.556317 8 61 0 199.24011230469 70 1 delete
09:24:47 60.370956 29.556353 12 47 0 226.90037536621 70 1 delete
09:24:35 60.370965 29.556284 8 71 0 226.90037536621 70 1 delete
09:24:34 60.370969 29.556293 12 75 0 226.90037536621 70 1 delete
09:24:22 60.370966 29.556331 6 78 0.56244593858719 226.90037536621 70 1 delete
09:24:10 60.371006 29.556391 8 82 0 48.478679656982 70 1 delete
09:23:58 60.370989 29.556392 8 69 0 205.04362487793 70 1 delete
09:23:45 60.370977 29.556388 6 64 0 205.04362487793 70 1 delete
09:23:32 60.371003 29.556370 6 76 0 205.04362487793 70 1 delete
09:23:30 60.371001 29.556373 8 75 0 205.04362487793 70 1 delete
09:23:17 60.370950 29.556357 8 65 0 205.04362487793 70 1 delete
09:23:09 60.370954 29.556349 8 67 0 205.04362487793 70 1 delete
09:23:03 60.370978 29.556428 8 60 0 205.04362487793 70 1 delete
09:22:50 60.370959 29.556464 12 47 0 205.04362487793 70 1 delete
09:22:38 60.370952 29.556507 4 40 0 205.04362487793 70 1 delete
09:22:27 60.370944 29.556494 8 33 0 205.04362487793 70 1 delete